createdAt,value
2017-09-30T00:01:21.274Z,56.40
2017-09-30T00:03:48.682Z,51.60
2017-09-30T00:06:16.094Z,45.63
2017-09-30T00:08:43.963Z,46.03
2017-09-30T00:11:11.398Z,49.80
2017-09-30T00:13:38.823Z,44.73
2017-09-30T00:16:06.250Z,47.40
2017-09-30T00:18:33.680Z,43.43
2017-09-30T00:21:01.091Z,45.10
2017-09-30T00:23:28.519Z,46.43
2017-09-30T00:25:55.935Z,45.00
2017-09-30T00:28:23.405Z,47.50
2017-09-30T00:30:50.830Z,48.97
2017-09-30T00:33:19.011Z,43.63
2017-09-30T00:35:46.435Z,45.83
2017-09-30T00:38:15.386Z,49.37
2017-09-30T00:40:42.800Z,47.10
2017-09-30T00:43:11.299Z,46.92
2017-09-30T00:45:40.418Z,45.77
2017-09-30T00:48:07.826Z,45.73
2017-09-30T00:50:36.018Z,41.90
2017-09-30T00:53:04.196Z,42.60
2017-09-30T00:55:31.602Z,46.63
2017-09-30T00:57:59.035Z,45.47
2017-09-30T01:00:27.211Z,43.10
2017-09-30T01:02:54.623Z,40.00
2017-09-30T01:05:22.807Z,44.27
2017-09-30T01:07:50.234Z,42.77
2017-09-30T01:10:17.651Z,48.60
2017-09-30T01:12:45.061Z,50.10
2017-09-30T01:15:13.262Z,49.90
2017-09-30T01:17:41.875Z,50.23
2017-09-30T01:20:09.292Z,43.20
2017-09-30T01:22:37.471Z,49.50
2017-09-30T01:25:04.891Z,51.13
2017-09-30T01:27:32.323Z,47.00
2017-09-30T01:29:59.735Z,45.40
2017-09-30T01:32:27.166Z,50.90
2017-09-30T01:34:55.357Z,44.37
2017-09-30T01:37:23.542Z,49.13
2017-09-30T01:39:50.959Z,46.73
2017-09-30T01:42:18.383Z,45.27
2017-09-30T01:44:45.798Z,54.40
2017-09-30T01:47:13.986Z,47.87
2017-09-30T01:49:42.350Z,49.10
2017-09-30T01:52:11.466Z,50.53
2017-09-30T01:54:38.883Z,55.00
2017-09-30T01:57:07.062Z,47.80
2017-09-30T01:59:35.266Z,47.87
2017-09-30T02:02:02.678Z,53.60
2017-09-30T02:04:30.104Z,54.17
2017-09-30T02:06:57.519Z,61.23
2017-09-30T02:09:24.947Z,70.23
2017-09-30T02:11:52.367Z,59.70
2017-09-30T02:14:19.778Z,65.63
2017-09-30T02:16:47.978Z,65.53
2017-09-30T02:19:16.136Z,65.53
2017-09-30T02:21:43.546Z,75.70
2017-09-30T02:24:10.971Z,67.80
2017-09-30T02:26:38.385Z,67.13
2017-09-30T02:29:05.815Z,71.63
2017-09-30T02:31:33.235Z,79.23
2017-09-30T02:34:00.656Z,74.03
2017-09-30T02:36:28.838Z,69.77
2017-09-30T02:38:57.035Z,75.33
2017-09-30T02:41:24.446Z,88.20
2017-09-30T02:43:52.643Z,81.20
2017-09-30T02:46:20.833Z,89.23
2017-09-30T02:48:48.246Z,96.03
2017-09-30T02:51:15.658Z,97.93
2017-09-30T02:53:43.103Z,90.23
2017-09-30T02:56:10.506Z,94.27
2017-09-30T02:58:37.935Z,91.60
2017-09-30T03:01:05.360Z,95.30
2017-09-30T03:03:33.535Z,92.87
2017-09-30T03:06:01.369Z,101.73
2017-09-30T03:08:28.779Z,93.40
2017-09-30T03:10:56.234Z,99.97
2017-09-30T03:13:23.670Z,90.33
2017-09-30T03:15:51.072Z,89.03
2017-09-30T03:18:18.486Z,81.40
2017-09-30T03:20:45.911Z,78.07
2017-09-30T03:23:14.086Z,81.87
2017-09-30T03:25:43.205Z,83.50
2017-09-30T03:28:11.515Z,88.23
2017-09-30T03:30:38.941Z,82.33
2017-09-30T03:33:06.366Z,82.47
2017-09-30T03:35:33.775Z,87.27
2017-09-30T03:38:01.197Z,93.53
2017-09-30T03:40:29.395Z,89.23
2017-09-30T03:42:56.834Z,80.50
2017-09-30T03:45:24.255Z,98.73
2017-09-30T03:47:51.664Z,92.30
2017-09-30T03:50:19.111Z,81.83
2017-09-30T03:52:46.595Z,86.90
2017-09-30T03:55:14.016Z,96.87
2017-09-30T03:57:41.426Z,93.80
2017-09-30T04:00:08.845Z,88.87
2017-09-30T04:02:36.263Z,91.80
2017-09-30T04:05:04.456Z,109.37
2017-09-30T04:07:31.879Z,94.87
2017-09-30T04:10:00.103Z,97.70
2017-09-30T04:12:27.524Z,99.00
2017-09-30T04:14:55.706Z,95.30
2017-09-30T04:17:23.882Z,95.83
2017-09-30T04:19:51.304Z,102.80
2017-09-30T04:22:18.720Z,95.17
2017-09-30T04:24:46.149Z,105.22
2017-09-30T04:27:14.844Z,101.65
2017-09-30T04:29:42.270Z,104.40
2017-09-30T04:32:09.697Z,103.87
2017-09-30T04:34:37.112Z,108.80
2017-09-30T04:37:04.544Z,103.87
2017-09-30T04:39:31.961Z,101.13
2017-09-30T04:41:59.377Z,105.93
2017-09-30T04:44:26.797Z,104.87
2017-09-30T04:46:54.214Z,101.13
2017-09-30T04:49:21.663Z,104.97
2017-09-30T04:51:49.092Z,104.47
2017-09-30T04:54:17.279Z,96.47
2017-09-30T04:56:44.702Z,104.73
2017-09-30T04:59:12.117Z,90.73
2017-09-30T05:01:39.543Z,90.13
2017-09-30T05:04:06.968Z,96.77
2017-09-30T05:06:34.480Z,95.43
2017-09-30T05:09:01.895Z,80.20
2017-09-30T05:11:30.086Z,80.63
2017-09-30T05:13:57.513Z,84.40
2017-09-30T05:16:24.927Z,74.67
2017-09-30T05:18:52.350Z,77.90
2017-09-30T05:21:19.758Z,81.77
2017-09-30T05:23:47.190Z,88.12
2017-09-30T05:26:16.382Z,87.87
2017-09-30T05:28:43.807Z,84.73
2017-09-30T05:31:11.999Z,88.90
2017-09-30T05:33:39.423Z,87.60
2017-09-30T05:36:06.839Z,93.27
2017-09-30T05:38:34.260Z,94.53
2017-09-30T05:41:01.683Z,92.00
2017-09-30T05:43:29.102Z,96.50
2017-09-30T05:45:56.528Z,102.00
2017-09-30T05:48:23.961Z,98.47
2017-09-30T05:50:51.366Z,94.80
2017-09-30T05:53:18.777Z,96.53
2017-09-30T05:55:46.974Z,96.50
2017-09-30T05:58:14.403Z,89.30
2017-09-30T06:00:42.611Z,87.40
2017-09-30T06:03:10.036Z,87.80
2017-09-30T06:05:38.258Z,86.53
2017-09-30T06:08:05.678Z,89.73
2017-09-30T06:10:33.616Z,86.73
2017-09-30T06:13:01.795Z,90.43
2017-09-30T06:15:29.223Z,93.17
2017-09-30T06:17:56.651Z,92.70
2017-09-30T06:20:24.060Z,99.23
2017-09-30T06:22:51.482Z,101.27
2017-09-30T06:25:18.907Z,107.47
2017-09-30T06:27:46.323Z,96.80
2017-09-30T06:30:13.755Z,99.47
2017-09-30T06:32:41.170Z,99.60
2017-09-30T06:35:08.586Z,94.17
2017-09-30T06:37:36.006Z,109.13
2017-09-30T06:40:03.459Z,100.60
2017-09-30T06:42:30.875Z,96.20
2017-09-30T06:44:59.067Z,93.33
2017-09-30T06:47:26.487Z,102.97
2017-09-30T06:49:53.918Z,94.53
2017-09-30T06:52:21.362Z,103.37
2017-09-30T06:54:48.784Z,98.80
2017-09-30T06:57:17.374Z,96.97
2017-09-30T06:59:44.795Z,90.73
2017-09-30T07:02:12.214Z,88.03
2017-09-30T07:04:39.642Z,96.00
2017-09-30T07:07:07.098Z,89.10
2017-09-30T07:09:34.515Z,88.47
2017-09-30T07:12:03.442Z,89.80
2017-09-30T07:14:30.860Z,91.87
2017-09-30T07:16:58.279Z,96.97
2017-09-30T07:19:25.697Z,83.47
2017-09-30T07:21:53.883Z,95.03
2017-09-30T07:24:22.070Z,94.03
2017-09-30T07:26:49.491Z,99.30
2017-09-30T07:29:17.686Z,98.50
2017-09-30T07:31:45.118Z,102.73
2017-09-30T07:34:12.539Z,94.17
2017-09-30T07:36:39.979Z,104.07
2017-09-30T07:39:07.397Z,90.57
2017-09-30T07:41:35.583Z,100.30
2017-09-30T07:44:03.002Z,89.90
2017-09-30T07:46:31.199Z,99.00
2017-09-30T07:48:59.382Z,82.10
2017-09-30T07:51:28.259Z,79.27
2017-09-30T07:53:55.759Z,72.60
2017-09-30T07:56:23.187Z,74.87
2017-09-30T07:58:51.375Z,68.90
2017-09-30T08:01:18.794Z,63.57
2017-09-30T08:03:46.212Z,66.83
2017-09-30T08:06:13.630Z,57.03
2017-09-30T08:08:41.044Z,54.03
2017-09-30T08:11:08.465Z,50.83
2017-09-30T08:13:35.883Z,56.50
2017-09-30T08:16:04.085Z,52.63
2017-09-30T08:18:31.496Z,42.50
2017-09-30T08:21:00.433Z,47.00
2017-09-30T08:23:27.846Z,42.60
2017-09-30T08:25:55.284Z,39.00
2017-09-30T08:28:22.715Z,40.43
2017-09-30T08:30:50.126Z,37.77
2017-09-30T08:33:18.422Z,40.45
2017-09-30T08:35:45.844Z,42.50
2017-09-30T08:38:13.260Z,38.83
2017-09-30T08:40:40.678Z,39.17
2017-09-30T08:43:08.859Z,33.33
2017-09-30T08:45:37.055Z,45.57
2017-09-30T08:48:04.493Z,35.53
2017-09-30T08:50:33.077Z,35.73
2017-09-30T08:53:01.258Z,35.53
2017-09-30T08:55:28.732Z,31.40
2017-09-30T08:57:56.138Z,35.23
2017-09-30T09:00:23.665Z,33.97
2017-09-30T09:02:51.099Z,33.57
2017-09-30T09:05:18.532Z,36.43
2017-09-30T09:07:45.963Z,33.63
2017-09-30T09:10:15.306Z,33.43
2017-09-30T09:12:42.723Z,31.50
2017-09-30T09:15:10.915Z,30.50
2017-09-30T09:17:39.090Z,30.57
2017-09-30T09:20:07.266Z,26.43
2017-09-30T09:22:34.707Z,26.70
2017-09-30T09:25:02.166Z,26.27
2017-09-30T09:27:30.356Z,24.00
2017-09-30T09:29:58.531Z,20.80
2017-09-30T09:32:25.947Z,20.47
2017-09-30T09:34:54.155Z,19.83
2017-09-30T09:37:22.334Z,17.83
2017-09-30T09:39:50.506Z,20.43
2017-09-30T09:42:18.620Z,18.52
2017-09-30T09:44:46.047Z,20.50
2017-09-30T09:47:13.583Z,18.40
2017-09-30T09:49:41.043Z,21.20
2017-09-30T09:52:09.258Z,13.90
2017-09-30T09:54:36.706Z,17.53
2017-09-30T09:57:04.147Z,15.87
2017-09-30T09:59:31.638Z,21.30
2017-09-30T10:01:59.058Z,21.60
2017-09-30T10:04:27.236Z,17.00
2017-09-30T10:06:54.717Z,20.07
2017-09-30T10:09:22.118Z,22.43
2017-09-30T10:11:50.306Z,19.33
2017-09-30T10:14:19.406Z,22.30
2017-09-30T10:16:46.843Z,22.07
2017-09-30T10:19:15.027Z,21.30
2017-09-30T10:21:43.206Z,20.27
2017-09-30T10:24:10.634Z,23.23
2017-09-30T10:26:38.144Z,21.97
2017-09-30T10:29:05.566Z,28.57
2017-09-30T10:31:33.754Z,23.97
2017-09-30T10:34:01.199Z,25.80
2017-09-30T10:36:29.398Z,18.70
2017-09-30T10:38:56.840Z,19.37
2017-09-30T10:41:24.284Z,18.73
2017-09-30T10:43:52.484Z,17.20
2017-09-30T10:46:19.931Z,16.60
2017-09-30T10:48:47.365Z,18.27
2017-09-30T10:51:15.555Z,16.80
2017-09-30T10:53:43.043Z,18.70
2017-09-30T10:56:10.504Z,24.23
2017-09-30T10:58:37.951Z,20.83
2017-09-30T11:01:05.354Z,19.53
2017-09-30T11:03:33.579Z,25.37
2017-09-30T11:06:01.014Z,21.93
2017-09-30T11:08:28.439Z,21.73
2017-09-30T11:10:55.855Z,21.57
2017-09-30T11:13:23.327Z,22.40
2017-09-30T11:15:50.741Z,22.30
2017-09-30T11:18:18.166Z,19.10
2017-09-30T11:20:46.366Z,23.80
2017-09-30T11:23:14.539Z,26.70
2017-09-30T11:25:41.970Z,20.03
2017-09-30T11:28:09.479Z,21.93
2017-09-30T11:30:36.890Z,22.30
2017-09-30T11:33:05.103Z,25.80
2017-09-30T11:35:32.534Z,17.10
2017-09-30T11:38:00.723Z,16.60
2017-09-30T11:40:28.156Z,19.60
2017-09-30T11:42:56.476Z,23.13
2017-09-30T11:45:23.931Z,21.33
2017-09-30T11:47:51.353Z,18.90
2017-09-30T11:50:20.459Z,21.70
2017-09-30T11:52:47.893Z,17.97
2017-09-30T11:55:16.071Z,19.03
2017-09-30T11:57:44.258Z,21.33
2017-09-30T12:00:11.693Z,17.93
2017-09-30T12:02:39.204Z,19.57
2017-09-30T12:05:07.312Z,21.63
2017-09-30T12:07:34.727Z,20.40
2017-09-30T12:10:02.151Z,25.03
2017-09-30T12:12:29.577Z,20.53
2017-09-30T12:14:57.002Z,23.97
2017-09-30T12:17:24.447Z,23.17
2017-09-30T12:19:51.877Z,22.47
2017-09-30T12:22:20.975Z,22.50
2017-09-30T12:24:48.455Z,20.73
2017-09-30T12:27:15.876Z,21.87
2017-09-30T12:29:44.062Z,24.10
2017-09-30T12:32:12.268Z,25.17
2017-09-30T12:34:39.686Z,26.17
2017-09-30T12:37:07.907Z,25.27
2017-09-30T12:39:35.332Z,23.93
2017-09-30T12:42:03.502Z,25.70
2017-09-30T12:44:30.931Z,24.77
2017-09-30T12:46:59.111Z,24.60
2017-09-30T12:49:27.299Z,36.17
2017-09-30T12:51:54.716Z,26.60
2017-09-30T12:54:22.951Z,27.43
2017-09-30T12:56:51.918Z,29.10
2017-09-30T12:59:19.618Z,26.90
2017-09-30T13:01:47.015Z,25.60
2017-09-30T13:04:15.199Z,31.63
2017-09-30T13:06:43.383Z,21.40
2017-09-30T13:09:10.869Z,24.43
2017-09-30T13:11:38.294Z,24.60
2017-09-30T13:14:06.472Z,21.50
2017-09-30T13:16:33.899Z,23.40
2017-09-30T13:19:01.309Z,23.17
2017-09-30T13:21:28.723Z,24.90
2017-09-30T13:23:56.911Z,23.10
2017-09-30T13:26:24.396Z,31.30
2017-09-30T13:28:51.824Z,22.60
2017-09-30T13:31:19.998Z,26.60
2017-09-30T13:33:47.474Z,26.90
2017-09-30T13:36:14.887Z,29.03
2017-09-30T13:38:42.291Z,26.60
2017-09-30T13:41:09.715Z,28.70
2017-09-30T13:43:37.900Z,24.50
2017-09-30T13:46:05.380Z,26.33
2017-09-30T13:48:32.838Z,29.07
2017-09-30T13:51:00.272Z,27.40
2017-09-30T13:53:27.694Z,35.40
2017-09-30T13:55:55.122Z,29.00
2017-09-30T13:58:22.539Z,30.27
2017-09-30T14:00:49.962Z,42.30
2017-09-30T14:03:17.384Z,39.27
2017-09-30T14:05:44.808Z,37.50
2017-09-30T14:08:12.240Z,38.70
2017-09-30T14:10:39.664Z,37.70
2017-09-30T14:13:07.083Z,42.73
2017-09-30T14:15:34.530Z,36.20
2017-09-30T14:18:02.746Z,40.43
2017-09-30T14:20:30.174Z,43.85
2017-09-30T14:22:57.599Z,40.53
2017-09-30T14:25:25.784Z,45.90
2017-09-30T14:27:53.981Z,43.60
2017-09-30T14:30:21.443Z,50.90
2017-09-30T14:32:48.858Z,43.53
2017-09-30T14:35:17.061Z,51.40
2017-09-30T14:37:45.235Z,48.30
2017-09-30T14:40:12.758Z,42.40
2017-09-30T14:42:40.308Z,39.70
2017-09-30T14:45:07.721Z,37.33
2017-09-30T14:47:35.162Z,38.90
2017-09-30T14:50:02.567Z,39.47
2017-09-30T14:52:29.982Z,41.93
2017-09-30T14:54:57.407Z,38.67
2017-09-30T14:57:25.592Z,37.57
2017-09-30T14:59:53.873Z,34.70
2017-09-30T15:02:21.316Z,34.37
2017-09-30T15:04:49.498Z,39.43
2017-09-30T15:07:16.991Z,45.00
2017-09-30T15:09:44.418Z,46.60
2017-09-30T15:12:11.934Z,46.80
2017-09-30T15:14:39.369Z,48.37
2017-09-30T15:17:07.393Z,46.55
2017-09-30T15:19:35.586Z,48.93
2017-09-30T15:22:03.007Z,50.97
2017-09-30T15:24:31.200Z,48.47
2017-09-30T15:26:59.382Z,47.53
2017-09-30T15:29:26.959Z,59.80
2017-09-30T15:31:54.419Z,47.83
2017-09-30T15:34:21.851Z,48.57
2017-09-30T15:36:49.258Z,49.73
2017-09-30T15:39:16.682Z,59.35
2017-09-30T15:41:44.112Z,56.07
2017-09-30T15:44:12.300Z,58.73
2017-09-30T15:46:39.729Z,55.13
2017-09-30T15:49:07.127Z,61.07
2017-09-30T15:51:34.577Z,55.07
2017-09-30T15:54:02.026Z,59.07
2017-09-30T15:56:29.496Z,58.47
2017-09-30T15:58:56.929Z,62.93
2017-09-30T16:01:24.446Z,59.37
2017-09-30T16:03:52.638Z,61.97
2017-09-30T16:06:20.042Z,67.63
2017-09-30T16:08:47.999Z,67.83
2017-09-30T16:11:15.422Z,64.20
2017-09-30T16:13:43.617Z,65.40
2017-09-30T16:16:11.196Z,70.30
2017-09-30T16:18:38.623Z,59.27
2017-09-30T16:21:06.111Z,67.07
2017-09-30T16:23:33.503Z,59.50
2017-09-30T16:26:00.931Z,60.97
2017-09-30T16:28:28.361Z,61.83
2017-09-30T16:30:55.779Z,67.63
2017-09-30T16:33:23.194Z,73.40
2017-09-30T16:35:50.618Z,64.70
2017-09-30T16:38:18.026Z,68.60
2017-09-30T16:40:45.450Z,56.83
2017-09-30T16:43:12.868Z,61.80
2017-09-30T16:45:41.072Z,59.23
2017-09-30T16:48:08.478Z,79.87
2017-09-30T16:50:36.002Z,52.70
2017-09-30T16:53:03.417Z,57.50
2017-09-30T16:55:31.607Z,34.20
2017-09-30T16:57:59.802Z,17.83
2017-09-30T17:00:27.256Z,13.20
2017-09-30T17:02:56.314Z,11.05
2017-09-30T17:05:23.707Z,9.53
2017-09-30T17:07:51.139Z,9.60
2017-09-30T17:10:18.550Z,6.30
2017-09-30T17:12:45.972Z,8.30
2017-09-30T17:15:13.398Z,7.30
2017-09-30T17:17:41.603Z,4.97
2017-09-30T17:20:09.004Z,5.70
2017-09-30T17:22:36.411Z,7.43
2017-09-30T17:25:03.867Z,10.80
2017-09-30T17:27:31.275Z,8.60
2017-09-30T17:29:58.699Z,10.67
2017-09-30T17:32:26.111Z,9.70
2017-09-30T17:34:54.314Z,11.50
2017-09-30T17:37:21.728Z,8.40
2017-09-30T17:39:49.931Z,13.03
2017-09-30T17:42:17.368Z,7.70
2017-09-30T17:44:45.550Z,6.33
2017-09-30T17:47:12.959Z,3.40
2017-09-30T17:49:40.385Z,5.27
2017-09-30T17:52:07.787Z,6.70
2017-09-30T17:54:36.698Z,7.80
2017-09-30T17:57:04.913Z,3.43
2017-09-30T17:59:32.294Z,3.73
2017-09-30T18:01:59.717Z,8.07
2017-09-30T18:04:27.131Z,4.20
2017-09-30T18:06:56.374Z,7.40
2017-09-30T18:11:56.818Z,6.37
2017-09-30T18:14:24.243Z,10.10
2017-09-30T18:16:52.423Z,5.27
2017-09-30T18:19:19.835Z,10.33
2017-09-30T18:21:47.266Z,6.23
2017-09-30T18:24:14.686Z,7.37
2017-09-30T18:26:42.095Z,6.87
2017-09-30T18:29:09.532Z,4.73
2017-09-30T18:31:36.930Z,7.50
2017-09-30T18:34:05.108Z,7.43
2017-09-30T18:36:33.302Z,6.30
2017-09-30T18:39:00.727Z,5.50
2017-09-30T18:41:28.165Z,7.37
2017-09-30T18:43:55.578Z,7.10
2017-09-30T18:46:23.042Z,7.13
2017-09-30T18:48:50.462Z,6.20
2017-09-30T18:51:18.643Z,8.10
2017-09-30T18:53:46.814Z,7.37
2017-09-30T18:56:15.134Z,11.03
2017-09-30T18:58:42.523Z,11.07
2017-09-30T19:01:09.930Z,8.67
2017-09-30T19:03:37.351Z,8.07
2017-09-30T19:06:04.755Z,9.33
2017-09-30T19:08:32.175Z,8.60
2017-09-30T19:11:00.370Z,6.37
2017-09-30T19:13:27.799Z,10.50
2017-09-30T19:15:55.975Z,10.40
2017-09-30T19:18:24.151Z,8.47
2017-09-30T19:20:52.325Z,9.10
2017-09-30T19:23:20.508Z,12.40
2017-09-30T19:25:47.930Z,12.00
2017-09-30T19:28:15.351Z,10.37
2017-09-30T19:30:42.767Z,10.07
2017-09-30T19:33:10.178Z,8.20
2017-09-30T19:35:37.594Z,11.50
2017-09-30T19:38:05.025Z,11.27
2017-09-30T19:40:34.314Z,12.23
2017-09-30T19:43:01.750Z,10.63
2017-09-30T19:45:29.157Z,8.33
2017-09-30T19:47:56.578Z,8.53
2017-09-30T19:50:23.989Z,12.73
2017-09-30T19:52:51.406Z,9.80
2017-09-30T19:55:19.590Z,9.10
2017-09-30T19:57:47.087Z,8.40
2017-09-30T20:00:14.522Z,11.30
2017-09-30T20:02:41.946Z,13.80
2017-09-30T20:05:10.140Z,10.80
2017-09-30T20:07:37.553Z,11.93
2017-09-30T20:10:04.971Z,11.57
2017-09-30T20:12:32.395Z,13.63
2017-09-30T20:15:00.570Z,9.90
2017-09-30T20:17:29.455Z,14.23
2017-09-30T20:19:58.567Z,11.07
2017-09-30T20:22:25.977Z,17.43
2017-09-30T20:24:53.399Z,8.87
2017-09-30T20:27:20.807Z,7.68
2017-09-30T20:29:48.987Z,9.40
2017-09-30T20:32:17.167Z,11.63
2017-09-30T20:34:45.351Z,8.67
2017-09-30T20:37:12.772Z,10.43
2017-09-30T20:39:40.194Z,7.10
2017-09-30T20:42:07.632Z,8.20
2017-09-30T20:44:35.047Z,8.40
2017-09-30T20:47:02.455Z,9.47
2017-09-30T20:49:29.880Z,10.50
2017-09-30T20:51:58.054Z,8.57
2017-09-30T20:54:25.483Z,9.10
2017-09-30T20:56:52.907Z,13.53
2017-09-30T20:59:20.323Z,10.63
2017-09-30T21:01:48.495Z,9.77
2017-09-30T21:04:16.666Z,12.60
2017-09-30T21:06:44.902Z,12.90
2017-09-30T21:09:12.310Z,11.20
2017-09-30T21:11:39.741Z,11.70
2017-09-30T21:14:07.915Z,17.67
2017-09-30T21:16:36.127Z,12.80
2017-09-30T21:19:03.552Z,13.00
2017-09-30T21:21:31.736Z,12.57
2017-09-30T21:24:00.713Z,13.40
2017-09-30T21:26:29.826Z,10.20
2017-09-30T21:28:57.241Z,13.27
2017-09-30T21:31:24.651Z,20.73
2017-09-30T21:33:52.062Z,12.40
2017-09-30T21:36:19.492Z,8.23
2017-09-30T21:38:46.942Z,9.63
2017-09-30T21:41:14.350Z,13.53
2017-09-30T21:43:42.535Z,13.40
2017-09-30T21:46:10.835Z,11.20
2017-09-30T21:48:38.256Z,13.90
2017-09-30T21:51:06.439Z,13.60
2017-09-30T21:53:33.862Z,11.07
2017-09-30T21:56:01.295Z,12.03
2017-09-30T21:58:28.701Z,14.33
2017-09-30T22:00:56.879Z,12.83
2017-09-30T22:03:24.314Z,14.50
2017-09-30T22:05:52.487Z,12.17
2017-09-30T22:08:20.715Z,11.83
2017-09-30T22:10:48.143Z,12.77
2017-09-30T22:13:15.607Z,13.13
2017-09-30T22:15:43.018Z,20.10
2017-09-30T22:18:10.438Z,13.50
2017-09-30T22:20:37.863Z,16.43
2017-09-30T22:23:05.287Z,15.03
2017-09-30T22:25:32.715Z,11.67
2017-09-30T22:28:01.175Z,18.23
2017-09-30T22:30:28.587Z,13.80
2017-09-30T22:32:57.044Z,12.40
2017-09-30T22:35:24.454Z,20.20
2017-09-30T22:37:51.892Z,16.53
2017-09-30T22:40:20.081Z,15.83
2017-09-30T22:42:48.270Z,11.63
2017-09-30T22:45:15.693Z,23.83
2017-09-30T22:47:43.874Z,13.93
2017-09-30T22:50:12.065Z,10.77
2017-09-30T22:52:39.483Z,12.40
2017-09-30T22:55:06.903Z,14.10
2017-09-30T22:57:34.336Z,14.13
2017-09-30T23:00:01.818Z,13.50
2017-09-30T23:02:29.238Z,13.37
2017-09-30T23:04:56.659Z,16.03
2017-09-30T23:07:24.079Z,16.53
2017-09-30T23:09:51.508Z,16.47
2017-09-30T23:12:18.931Z,16.27
2017-09-30T23:14:46.720Z,18.13
2017-09-30T23:17:14.108Z,18.20
2017-09-30T23:19:41.540Z,17.47
2017-09-30T23:22:08.955Z,20.87
2017-09-30T23:24:36.480Z,19.63
2017-09-30T23:27:03.886Z,21.10
2017-09-30T23:29:32.795Z,16.23
2017-09-30T23:32:00.277Z,18.70
2017-09-30T23:34:27.694Z,21.73
2017-09-30T23:36:55.895Z,17.63
2017-09-30T23:39:23.315Z,21.70
2017-09-30T23:41:51.523Z,19.80
2017-09-30T23:44:18.940Z,24.33
2017-09-30T23:46:46.383Z,19.13
2017-09-30T23:49:13.782Z,21.40
2017-09-30T23:51:41.206Z,23.30
2017-09-30T23:54:08.630Z,27.17
2017-09-30T23:56:36.060Z,24.53
2017-09-30T23:59:03.476Z,26.73
